createdAt,value
2018-04-15T00:00:09.650Z,11.41
2018-04-15T00:01:09.803Z,11.27
2018-04-15T00:02:09.957Z,11.35
2018-04-15T00:03:10.108Z,11.32
2018-04-15T00:04:10.260Z,11.20
2018-04-15T00:05:10.411Z,11.21
2018-04-15T00:06:10.560Z,11.25
2018-04-15T00:07:10.716Z,11.34
2018-04-15T00:08:10.864Z,11.38
2018-04-15T00:09:11.015Z,11.38
2018-04-15T00:10:11.166Z,11.39
2018-04-15T00:11:11.318Z,11.44
2018-04-15T00:12:11.470Z,11.41
2018-04-15T00:13:11.620Z,11.41
2018-04-15T00:14:11.765Z,11.41
2018-04-15T00:15:11.915Z,11.47
2018-04-15T00:16:12.065Z,11.50
2018-04-15T00:17:12.217Z,11.50
2018-04-15T00:18:12.365Z,11.53
2018-04-15T00:19:12.520Z,11.49
2018-04-15T00:20:12.671Z,11.54
2018-04-15T00:21:12.823Z,11.52
2018-04-15T00:22:12.974Z,11.54
2018-04-15T00:23:13.125Z,11.54
2018-04-15T00:24:13.275Z,11.44
2018-04-15T00:25:13.426Z,11.38
2018-04-15T00:26:13.578Z,11.43
2018-04-15T00:27:13.734Z,11.47
2018-04-15T00:28:13.881Z,11.47
2018-04-15T00:29:14.033Z,11.53
2018-04-15T00:30:14.182Z,11.46
2018-04-15T00:31:14.338Z,11.44
2018-04-15T00:32:14.491Z,11.36
2018-04-15T00:33:14.639Z,11.35
2018-04-15T00:34:14.790Z,11.41
2018-04-15T00:35:14.946Z,11.44
2018-04-15T00:36:15.094Z,11.50
2018-04-15T00:37:15.245Z,11.43
2018-04-15T00:38:15.397Z,11.49
2018-04-15T00:39:15.545Z,11.43
2018-04-15T00:40:15.699Z,11.53
2018-04-15T00:41:15.845Z,11.47
2018-04-15T00:42:15.996Z,11.47
2018-04-15T00:43:16.148Z,11.65
2018-04-15T00:44:16.300Z,11.54
2018-04-15T00:45:16.450Z,11.65
2018-04-15T00:46:16.604Z,11.62
2018-04-15T00:47:16.750Z,11.61
2018-04-15T00:48:16.902Z,11.62
2018-04-15T00:49:17.054Z,11.56
2018-04-15T00:50:17.202Z,11.47
2018-04-15T00:51:17.353Z,11.46
2018-04-15T00:52:17.506Z,11.44
2018-04-15T00:53:17.655Z,11.29
2018-04-15T00:54:17.806Z,11.25
2018-04-15T00:55:17.956Z,11.20
2018-04-15T00:56:18.109Z,11.29
2018-04-15T00:57:18.259Z,11.25
2018-04-15T00:58:18.413Z,11.17
2018-04-15T00:59:18.564Z,11.09
2018-04-15T01:00:18.717Z,11.07
2018-04-15T01:01:18.863Z,11.03
2018-04-15T01:02:19.018Z,11.03
2018-04-15T01:03:19.165Z,11.02
2018-04-15T01:04:19.319Z,11.16
2018-04-15T01:05:19.468Z,11.11
2018-04-15T01:06:19.620Z,11.09
2018-04-15T01:07:19.772Z,11.17
2018-04-15T01:08:19.922Z,11.28
2018-04-15T01:09:20.073Z,11.31
2018-04-15T01:10:20.222Z,11.32
2018-04-15T01:11:20.374Z,11.31
2018-04-15T01:12:20.523Z,11.25
2018-04-15T01:13:20.677Z,11.38
2018-04-15T01:14:20.827Z,11.32
2018-04-15T01:15:20.980Z,11.47
2018-04-15T01:16:21.131Z,11.38
2018-04-15T01:17:21.280Z,11.28
2018-04-15T01:18:21.432Z,11.17
2018-04-15T01:19:21.582Z,11.19
2018-04-15T01:20:21.728Z,11.10
2018-04-15T01:21:21.882Z,11.09
2018-04-15T01:22:22.034Z,10.95
2018-04-15T01:23:22.184Z,10.99
2018-04-15T01:24:22.334Z,11.07
2018-04-15T01:25:22.486Z,11.02
2018-04-15T01:26:22.637Z,11.01
2018-04-15T01:27:22.792Z,11.03
2018-04-15T01:28:22.941Z,11.01
2018-04-15T01:29:23.092Z,10.95
2018-04-15T01:30:23.243Z,10.96
2018-04-15T01:31:23.394Z,10.94
2018-04-15T01:32:23.545Z,10.95
2018-04-15T01:33:23.697Z,10.99
2018-04-15T01:34:23.850Z,11.01
2018-04-15T01:35:24.001Z,11.07
2018-04-15T01:36:24.156Z,11.13
2018-04-15T01:37:24.309Z,11.17
2018-04-15T01:38:24.459Z,11.14
2018-04-15T01:39:24.609Z,11.09
2018-04-15T01:40:24.760Z,11.13
2018-04-15T01:41:24.913Z,11.07
2018-04-15T01:42:25.060Z,11.24
2018-04-15T01:43:25.213Z,11.21
2018-04-15T01:44:25.362Z,11.28
2018-04-15T01:45:25.512Z,11.27
2018-04-15T01:46:25.663Z,11.24
2018-04-15T01:47:25.818Z,11.27
2018-04-15T01:48:25.968Z,11.21
2018-04-15T01:49:26.121Z,11.06
2018-04-15T01:50:26.269Z,11.03
2018-04-15T01:51:26.421Z,11.06
2018-04-15T01:52:26.570Z,11.03
2018-04-15T01:53:26.722Z,11.03
2018-04-15T01:54:26.873Z,11.13
2018-04-15T01:55:27.024Z,11.03
2018-04-15T01:56:27.176Z,10.89
2018-04-15T01:57:27.325Z,10.99
2018-04-15T01:58:27.477Z,11.02
2018-04-15T01:59:27.629Z,10.98
2018-04-15T02:00:27.782Z,10.99
2018-04-15T02:01:27.931Z,10.91
2018-04-15T02:02:28.080Z,10.81
2018-04-15T02:03:28.236Z,10.94
2018-04-15T02:04:28.383Z,10.88
2018-04-15T02:05:28.535Z,10.91
2018-04-15T02:06:28.686Z,10.96
2018-04-15T02:07:28.837Z,10.98
2018-04-15T02:08:28.988Z,10.98
2018-04-15T02:09:29.136Z,10.99
2018-04-15T02:10:29.290Z,10.96
2018-04-15T02:11:29.441Z,10.95
2018-04-15T02:12:29.591Z,10.98
2018-04-15T02:13:29.743Z,11.07
2018-04-15T02:14:29.895Z,11.02
2018-04-15T02:15:30.052Z,11.07
2018-04-15T02:16:30.200Z,11.19
2018-04-15T02:17:30.348Z,11.24
2018-04-15T02:18:30.503Z,11.24
2018-04-15T02:19:30.653Z,11.24
2018-04-15T02:20:30.803Z,11.24
2018-04-15T02:21:30.953Z,11.06
2018-04-15T02:22:31.106Z,11.17
2018-04-15T02:23:31.258Z,11.10
2018-04-15T02:24:31.410Z,11.06
2018-04-15T02:25:31.561Z,11.14
2018-04-15T02:26:31.712Z,11.10
2018-04-15T02:27:31.861Z,11.14
2018-04-15T02:28:32.013Z,11.07
2018-04-15T02:29:32.164Z,11.20
2018-04-15T02:30:32.313Z,11.20
2018-04-15T02:31:32.461Z,11.27
2018-04-15T02:32:32.614Z,11.24
2018-04-15T02:33:32.765Z,11.27
2018-04-15T02:34:32.916Z,11.20
2018-04-15T02:35:33.073Z,11.19
2018-04-15T02:36:33.218Z,11.07
2018-04-15T02:37:33.370Z,11.06
2018-04-15T02:38:33.518Z,10.95
2018-04-15T02:39:33.669Z,10.83
2018-04-15T02:40:33.822Z,10.73
2018-04-15T02:41:33.972Z,10.77
2018-04-15T02:42:34.123Z,10.77
2018-04-15T02:43:34.272Z,10.74
2018-04-15T02:44:34.420Z,10.76
2018-04-15T02:45:34.569Z,10.76
2018-04-15T02:46:34.720Z,10.63
2018-04-15T02:47:34.872Z,10.71
2018-04-15T02:48:35.031Z,10.63
2018-04-15T02:49:35.176Z,10.56
2018-04-15T02:50:35.326Z,10.56
2018-04-15T02:51:35.476Z,10.43
2018-04-15T02:52:35.617Z,10.40
2018-04-15T02:53:35.765Z,10.36
2018-04-15T02:54:35.917Z,10.32
2018-04-15T02:55:36.066Z,10.34
2018-04-15T02:56:36.221Z,10.34
2018-04-15T02:57:36.366Z,10.37
2018-04-15T02:58:36.522Z,10.39
2018-04-15T02:59:36.671Z,10.46
2018-04-15T03:00:36.823Z,10.53
2018-04-15T03:01:36.974Z,10.51
2018-04-15T03:02:37.157Z,10.53
2018-04-15T03:03:37.305Z,10.52
2018-04-15T03:04:37.457Z,10.44
2018-04-15T03:05:37.606Z,10.46
2018-04-15T03:06:37.756Z,10.53
2018-04-15T03:07:37.907Z,10.44
2018-04-15T03:08:38.059Z,10.40
2018-04-15T03:09:38.209Z,10.42
2018-04-15T03:10:38.361Z,10.55
2018-04-15T03:11:38.510Z,10.51
2018-04-15T03:12:38.662Z,10.51
2018-04-15T03:13:38.810Z,10.59
2018-04-15T03:14:38.972Z,10.60
2018-04-15T03:15:39.110Z,10.56
2018-04-15T03:16:39.260Z,10.56
2018-04-15T03:17:39.409Z,10.51
2018-04-15T03:18:39.561Z,10.51
2018-04-15T03:19:39.709Z,10.43
2018-04-15T03:20:39.859Z,10.40
2018-04-15T03:21:40.011Z,10.44
2018-04-15T03:22:40.163Z,10.42
2018-04-15T03:23:40.310Z,10.37
2018-04-15T03:24:40.461Z,10.32
2018-04-15T03:25:40.611Z,10.30
2018-04-15T03:26:40.760Z,10.24
2018-04-15T03:27:40.912Z,10.17
2018-04-15T03:28:41.060Z,10.09
2018-04-15T03:29:41.210Z,10.09
2018-04-15T03:30:41.359Z,10.06
2018-04-15T03:31:41.509Z,10.18
2018-04-15T03:32:41.658Z,10.12
2018-04-15T03:33:41.811Z,10.03
2018-04-15T03:34:41.960Z,10.06
2018-04-15T03:35:42.112Z,10.09
2018-04-15T03:36:42.263Z,10.12
2018-04-15T03:37:42.414Z,10.14
2018-04-15T03:38:42.567Z,10.09
2018-04-15T03:39:42.716Z,10.14
2018-04-15T03:40:42.865Z,10.03
2018-04-15T03:41:43.060Z,10.06
2018-04-15T03:42:43.166Z,10.01
2018-04-15T03:43:43.315Z,10.01
2018-04-15T03:44:43.463Z,10.00
2018-04-15T03:45:43.616Z,10.07
2018-04-15T03:46:43.763Z,9.93
2018-04-15T03:47:43.913Z,10.07
2018-04-15T03:48:44.065Z,9.94
2018-04-15T03:49:44.213Z,10.06
2018-04-15T03:50:44.366Z,10.12
2018-04-15T03:51:44.519Z,10.07
2018-04-15T03:52:44.671Z,10.07
2018-04-15T03:53:44.819Z,10.06
2018-04-15T03:54:44.973Z,10.07
2018-04-15T03:55:45.122Z,10.14
2018-04-15T03:56:45.271Z,10.06
2018-04-15T03:57:45.420Z,10.06
2018-04-15T03:58:45.566Z,10.14
2018-04-15T03:59:45.720Z,10.10
2018-04-15T04:00:45.870Z,10.03
2018-04-15T04:01:46.027Z,10.09
2018-04-15T04:02:46.173Z,10.15
2018-04-15T04:03:46.325Z,10.12
2018-04-15T04:04:46.471Z,10.24
2018-04-15T04:05:46.627Z,10.12
2018-04-15T04:06:46.773Z,10.24
2018-04-15T04:07:46.924Z,10.18
2018-04-15T04:08:47.077Z,10.24
2018-04-15T04:09:47.225Z,10.26
2018-04-15T04:10:47.377Z,10.21
2018-04-15T04:11:47.528Z,10.22
2018-04-15T04:12:47.676Z,10.22
2018-04-15T04:13:47.828Z,10.28
2018-04-15T04:14:47.976Z,10.28
2018-04-15T04:15:48.130Z,10.30
2018-04-15T04:16:48.282Z,10.22
2018-04-15T04:17:48.430Z,10.24
2018-04-15T04:18:48.582Z,10.28
2018-04-15T04:19:48.731Z,10.32
2018-04-15T04:20:48.880Z,10.34
2018-04-15T04:21:49.030Z,10.34
2018-04-15T04:22:49.182Z,10.34
2018-04-15T04:23:49.329Z,10.32
2018-04-15T04:24:49.479Z,10.36
2018-04-15T04:25:49.631Z,10.30
2018-04-15T04:26:49.781Z,10.39
2018-04-15T04:27:49.935Z,10.40
2018-04-15T04:28:50.086Z,10.22
2018-04-15T04:29:50.236Z,10.25
2018-04-15T04:30:50.388Z,10.26
2018-04-15T04:31:50.549Z,10.28
2018-04-15T04:32:50.690Z,10.18
2018-04-15T04:33:50.844Z,10.19
2018-04-15T04:34:50.992Z,10.15
2018-04-15T04:35:51.141Z,10.21
2018-04-15T04:36:51.287Z,10.24
2018-04-15T04:37:51.442Z,10.22
2018-04-15T04:38:51.591Z,10.25
2018-04-15T04:39:51.744Z,10.26
2018-04-15T04:40:51.898Z,10.28
2018-04-15T04:41:52.047Z,10.24
2018-04-15T04:42:52.197Z,10.21
2018-04-15T04:43:52.349Z,10.21
2018-04-15T04:44:52.495Z,10.01
2018-04-15T04:45:52.643Z,10.06
2018-04-15T04:46:52.793Z,9.96
2018-04-15T04:47:52.946Z,9.97
2018-04-15T04:48:53.096Z,9.94
2018-04-15T04:49:53.245Z,10.04
2018-04-15T04:50:53.401Z,9.93
2018-04-15T04:51:53.563Z,9.94
2018-04-15T04:52:53.699Z,10.03
2018-04-15T04:53:53.853Z,10.12
2018-04-15T04:54:54.003Z,9.99
2018-04-15T04:55:54.152Z,9.94
2018-04-15T04:56:54.304Z,10.06
2018-04-15T04:57:54.454Z,10.18
2018-04-15T04:58:54.608Z,10.10
2018-04-15T04:59:54.758Z,10.09
2018-04-15T05:00:54.910Z,10.25
2018-04-15T05:01:55.063Z,10.22
2018-04-15T05:02:55.213Z,10.34
2018-04-15T05:03:55.366Z,10.40
2018-04-15T05:04:55.517Z,10.43
2018-04-15T05:05:55.668Z,10.44
2018-04-15T05:06:55.820Z,10.51
2018-04-15T05:07:55.971Z,10.33
2018-04-15T05:08:56.122Z,10.33
2018-04-15T05:09:56.275Z,10.26
2018-04-15T05:10:56.427Z,10.43
2018-04-15T05:11:56.575Z,10.42
2018-04-15T05:12:56.723Z,10.26
2018-04-15T05:13:56.875Z,10.15
2018-04-15T05:14:57.025Z,10.21
2018-04-15T05:15:57.175Z,10.28
2018-04-15T05:16:57.323Z,10.18
2018-04-15T05:17:57.477Z,10.22
2018-04-15T05:18:57.626Z,10.22
2018-04-15T05:19:57.779Z,10.25
2018-04-15T05:20:57.929Z,10.26
2018-04-15T05:21:58.078Z,10.25
2018-04-15T05:22:58.229Z,10.28
2018-04-15T05:23:58.379Z,10.14
2018-04-15T05:24:58.533Z,10.21
2018-04-15T05:25:58.682Z,10.32
2018-04-15T05:26:58.835Z,10.43
2018-04-15T05:27:58.986Z,10.55
2018-04-15T05:28:59.138Z,10.53
2018-04-15T05:29:59.289Z,10.60
2018-04-15T05:30:59.441Z,10.74
2018-04-15T05:31:59.599Z,10.65
2018-04-15T05:32:59.747Z,10.71
2018-04-15T05:33:59.900Z,10.86
2018-04-15T05:35:00.052Z,10.68
2018-04-15T05:36:00.205Z,10.83
2018-04-15T05:37:00.351Z,10.88
2018-04-15T05:38:00.507Z,11.01
2018-04-15T05:39:00.655Z,11.07
2018-04-15T05:40:00.805Z,11.20
2018-04-15T05:41:00.956Z,11.13
2018-04-15T05:42:01.107Z,11.13
2018-04-15T05:43:01.260Z,11.19
2018-04-15T05:44:01.417Z,11.13
2018-04-15T05:45:01.581Z,11.16
2018-04-15T05:46:01.700Z,11.27
2018-04-15T05:47:01.849Z,11.31
2018-04-15T05:48:01.999Z,11.39
2018-04-15T05:49:02.149Z,11.47
2018-04-15T05:50:02.303Z,11.44
2018-04-15T05:51:02.454Z,11.50
2018-04-15T05:52:02.612Z,11.49
2018-04-15T05:53:02.755Z,11.52
2018-04-15T05:54:02.907Z,11.50
2018-04-15T05:55:03.060Z,11.46
2018-04-15T05:56:03.213Z,11.35
2018-04-15T05:57:03.363Z,11.29
2018-04-15T05:58:03.515Z,11.21
2018-04-15T05:59:03.667Z,11.28
2018-04-15T06:00:03.822Z,11.17
2018-04-15T06:01:03.971Z,11.24
2018-04-15T06:02:04.121Z,11.20
2018-04-15T06:03:04.270Z,11.31
2018-04-15T06:04:04.421Z,11.27
2018-04-15T06:05:04.573Z,11.20
2018-04-15T06:06:04.726Z,11.21
2018-04-15T06:07:04.879Z,11.34
2018-04-15T06:08:05.030Z,11.54
2018-04-15T06:09:05.183Z,11.50
2018-04-15T06:10:05.334Z,11.47
2018-04-15T06:11:05.487Z,11.43
2018-04-15T06:12:05.640Z,11.44
2018-04-15T06:13:05.789Z,11.13
2018-04-15T06:14:05.940Z,11.25
2018-04-15T06:15:06.091Z,11.32
2018-04-15T06:16:06.242Z,11.47
2018-04-15T06:17:06.396Z,11.64
2018-04-15T06:18:06.549Z,11.74
2018-04-15T06:19:06.700Z,11.61
2018-04-15T06:20:06.857Z,11.64
2018-04-15T06:21:06.997Z,11.61
2018-04-15T06:22:07.161Z,11.64
2018-04-15T06:23:07.306Z,11.64
2018-04-15T06:24:07.456Z,11.67
2018-04-15T06:25:07.610Z,11.64
2018-04-15T06:26:07.763Z,11.64
2018-04-15T06:27:07.917Z,11.64
2018-04-15T06:28:08.065Z,11.71
2018-04-15T06:29:08.216Z,11.71
2018-04-15T06:30:08.375Z,11.83
2018-04-15T06:31:08.521Z,11.82
2018-04-15T06:32:08.673Z,11.86
2018-04-15T06:33:08.826Z,12.12
2018-04-15T06:34:08.976Z,12.13
2018-04-15T06:35:09.132Z,12.16
2018-04-15T06:36:09.293Z,12.21
2018-04-15T06:37:09.439Z,12.24
2018-04-15T06:38:09.589Z,12.33
2018-04-15T06:39:09.744Z,12.31
2018-04-15T06:40:09.897Z,12.48
2018-04-15T06:41:10.050Z,12.63
2018-04-15T06:42:10.200Z,12.77
2018-04-15T06:43:10.353Z,12.87
2018-04-15T06:44:10.505Z,12.95
2018-04-15T06:45:10.656Z,13.09
2018-04-15T06:46:10.815Z,13.25
2018-04-15T06:47:10.963Z,13.15
2018-04-15T06:48:11.115Z,13.21
2018-04-15T06:49:11.277Z,13.30
2018-04-15T06:50:11.420Z,13.17
2018-04-15T06:51:11.573Z,13.38
2018-04-15T06:52:11.727Z,13.25
2018-04-15T06:53:11.879Z,13.22
2018-04-15T06:54:12.037Z,13.27
2018-04-15T06:55:12.186Z,13.44
2018-04-15T06:56:12.341Z,13.55
2018-04-15T06:57:12.494Z,13.43
2018-04-15T06:58:12.648Z,13.56
2018-04-15T06:59:12.802Z,13.52
2018-04-15T07:00:12.955Z,13.46
2018-04-15T07:01:13.107Z,13.43
2018-04-15T07:02:13.271Z,13.58
2018-04-15T07:03:13.422Z,13.58
2018-04-15T07:04:13.570Z,13.56
2018-04-15T07:05:13.727Z,13.58
2018-04-15T07:06:13.879Z,13.63
2018-04-15T07:07:14.034Z,13.65
2018-04-15T07:08:14.187Z,13.76
2018-04-15T07:09:14.338Z,13.87
2018-04-15T07:10:14.494Z,13.69
2018-04-15T07:11:14.647Z,13.61
2018-04-15T07:12:14.801Z,13.56
2018-04-15T07:13:14.956Z,13.73
2018-04-15T07:14:15.110Z,13.69
2018-04-15T07:15:15.275Z,13.77
2018-04-15T07:16:15.429Z,13.76
2018-04-15T07:17:15.586Z,13.67
2018-04-15T07:18:15.737Z,13.41
2018-04-15T07:19:15.893Z,13.32
2018-04-15T07:20:16.046Z,13.14
2018-04-15T07:21:16.201Z,13.14
2018-04-15T07:22:16.359Z,13.17
2018-04-15T07:23:16.508Z,13.07
2018-04-15T07:24:16.662Z,13.09
2018-04-15T07:25:16.817Z,12.97
2018-04-15T07:26:16.972Z,13.04
2018-04-15T07:27:17.128Z,13.02
2018-04-15T07:28:17.289Z,13.17
2018-04-15T07:29:17.437Z,13.25
2018-04-15T07:30:17.589Z,13.32
2018-04-15T07:31:17.742Z,13.38
2018-04-15T07:32:17.898Z,13.37
2018-04-15T07:33:18.050Z,13.52
2018-04-15T07:34:18.206Z,13.47
2018-04-15T07:35:18.358Z,13.36
2018-04-15T07:36:18.529Z,13.36
2018-04-15T07:37:18.666Z,13.54
2018-04-15T07:38:18.819Z,13.58
2018-04-15T07:39:18.971Z,13.47
2018-04-15T07:40:19.128Z,13.52
2018-04-15T07:41:19.280Z,13.56
2018-04-15T07:42:19.433Z,13.43
2018-04-15T07:43:19.603Z,13.41
2018-04-15T07:44:19.742Z,13.38
2018-04-15T07:45:19.895Z,13.54
2018-04-15T07:46:20.050Z,13.56
2018-04-15T07:47:20.207Z,13.58
2018-04-15T07:48:20.359Z,13.56
2018-04-15T07:49:20.513Z,13.70
2018-04-15T07:50:20.668Z,13.56
2018-04-15T07:51:20.821Z,13.70
2018-04-15T07:52:20.977Z,13.74
2018-04-15T07:53:21.127Z,13.74
2018-04-15T07:54:21.284Z,13.94
2018-04-15T07:55:21.441Z,14.06
2018-04-15T07:56:21.598Z,14.21
2018-04-15T07:57:21.751Z,14.27
2018-04-15T07:58:21.907Z,14.25
2018-04-15T07:59:22.068Z,14.12
2018-04-15T08:00:22.220Z,14.14
2018-04-15T08:01:22.376Z,14.39
2018-04-15T08:02:22.543Z,14.27
2018-04-15T08:03:22.691Z,14.43
2018-04-15T08:04:22.840Z,14.57
2018-04-15T08:05:22.995Z,14.57
2018-04-15T08:06:23.151Z,14.80
2018-04-15T08:07:23.306Z,14.78
2018-04-15T08:08:23.459Z,14.90
2018-04-15T08:09:23.614Z,14.80
2018-04-15T08:10:23.768Z,14.61
2018-04-15T08:11:23.923Z,14.47
2018-04-15T08:12:24.076Z,14.34
2018-04-15T08:13:24.229Z,14.28
2018-04-15T08:14:24.383Z,14.16
2018-04-15T08:15:24.533Z,14.24
2018-04-15T08:16:24.689Z,14.24
2018-04-15T08:17:24.843Z,14.43
2018-04-15T08:18:25.000Z,14.37
2018-04-15T08:19:25.153Z,14.38
2018-04-15T08:20:25.311Z,14.39
2018-04-15T08:21:25.462Z,14.29
2018-04-15T08:22:25.616Z,14.27
2018-04-15T08:23:25.768Z,14.38
2018-04-15T08:24:25.925Z,14.47
2018-04-15T08:25:26.077Z,14.69
2018-04-15T08:26:26.239Z,14.72
2018-04-15T08:27:26.388Z,14.57
2018-04-15T08:28:26.545Z,14.52
2018-04-15T08:29:26.699Z,14.53
2018-04-15T08:30:26.851Z,14.62
2018-04-15T08:31:27.015Z,14.72
2018-04-15T08:32:27.162Z,14.68
2018-04-15T08:33:27.315Z,14.81
2018-04-15T08:34:27.473Z,14.84
2018-04-15T08:35:27.625Z,14.88
2018-04-15T08:36:27.778Z,15.12
2018-04-15T08:37:27.934Z,15.26
2018-04-15T08:38:28.088Z,15.43
2018-04-15T08:39:28.245Z,15.49
2018-04-15T08:40:28.413Z,15.68
2018-04-15T08:41:28.565Z,15.57
2018-04-15T08:42:28.723Z,15.63
2018-04-15T08:43:28.879Z,15.63
2018-04-15T08:44:29.033Z,15.78
2018-04-15T08:45:29.187Z,15.63
2018-04-15T08:46:29.342Z,15.94
2018-04-15T08:47:29.498Z,16.15
2018-04-15T08:48:29.652Z,16.11
2018-04-15T08:49:29.810Z,16.20
2018-04-15T08:50:29.968Z,16.22
2018-04-15T08:51:30.124Z,16.12
2018-04-15T08:52:30.279Z,16.22
2018-04-15T08:53:30.432Z,16.22
2018-04-15T08:54:30.606Z,16.33
2018-04-15T08:55:30.740Z,16.55
2018-04-15T08:56:30.894Z,16.58
2018-04-15T08:57:31.055Z,16.49
2018-04-15T08:58:31.209Z,16.65
2018-04-15T08:59:31.364Z,16.68
2018-04-15T09:00:31.524Z,16.70
2018-04-15T09:01:31.683Z,16.55
2018-04-15T09:02:31.836Z,16.30
2018-04-15T09:03:31.991Z,16.00
2018-04-15T09:04:32.152Z,15.81
2018-04-15T09:05:32.311Z,15.56
2018-04-15T09:06:32.471Z,15.74
2018-04-15T09:07:32.626Z,15.84
2018-04-15T09:08:32.781Z,15.99
2018-04-15T09:09:32.939Z,15.97
2018-04-15T09:10:33.096Z,16.20
2018-04-15T09:11:33.249Z,15.94
2018-04-15T09:12:33.409Z,16.00
2018-04-15T09:13:33.563Z,15.93
2018-04-15T09:14:33.718Z,15.68
2018-04-15T09:15:33.891Z,15.66
2018-04-15T09:16:34.048Z,15.68
2018-04-15T09:17:34.207Z,15.84
2018-04-15T09:18:34.380Z,15.89
2018-04-15T09:19:34.546Z,16.11
2018-04-15T09:20:34.697Z,16.18
2018-04-15T09:21:34.858Z,16.27
2018-04-15T09:22:35.027Z,16.22
2018-04-15T09:23:35.210Z,16.30
2018-04-15T09:24:35.369Z,16.44
2018-04-15T09:25:35.536Z,16.59
2018-04-15T09:26:35.692Z,16.52
2018-04-15T09:27:35.855Z,16.75
2018-04-15T09:28:36.020Z,16.83
2018-04-15T09:29:36.197Z,16.90
2018-04-15T09:30:36.343Z,16.67
2018-04-15T09:31:36.499Z,16.60
2018-04-15T09:32:36.655Z,16.50
2018-04-15T09:33:36.810Z,16.50
2018-04-15T09:34:36.966Z,16.58
2018-04-15T09:35:37.169Z,16.55
2018-04-15T09:36:37.276Z,16.52
2018-04-15T09:37:37.430Z,16.56
2018-04-15T09:38:37.594Z,16.60
2018-04-15T09:39:37.754Z,16.96
2018-04-15T09:40:37.908Z,17.04
2018-04-15T09:41:38.062Z,17.04
2018-04-15T09:42:38.220Z,17.25
2018-04-15T09:43:38.415Z,17.41
2018-04-15T09:44:38.572Z,17.59
2018-04-15T09:45:38.737Z,17.67
2018-04-15T09:46:38.891Z,17.82
2018-04-15T09:47:39.046Z,17.95
2018-04-15T09:48:39.202Z,18.13
2018-04-15T09:49:39.358Z,17.89
2018-04-15T09:50:39.533Z,17.43
2018-04-15T09:51:39.689Z,17.28
2018-04-15T09:52:39.844Z,17.23
2018-04-15T09:53:39.999Z,17.18
2018-04-15T09:54:40.155Z,17.14
2018-04-15T09:55:40.311Z,17.33
2018-04-15T09:56:40.469Z,17.36
2018-04-15T09:57:40.627Z,17.47
2018-04-15T09:58:40.784Z,17.64
2018-04-15T09:59:40.977Z,17.50
2018-04-15T10:00:41.137Z,17.29
2018-04-15T10:01:41.290Z,17.53
2018-04-15T10:02:41.446Z,17.62
2018-04-15T10:03:41.599Z,17.69
2018-04-15T10:04:41.759Z,17.73
2018-04-15T10:05:41.918Z,17.87
2018-04-15T10:06:42.079Z,17.88
2018-04-15T10:07:42.236Z,17.63
2018-04-15T10:08:42.392Z,17.51
2018-04-15T10:09:42.548Z,17.51
2018-04-15T10:10:42.702Z,17.57
2018-04-15T10:11:42.859Z,17.63
2018-04-15T10:12:43.025Z,17.91
2018-04-15T10:13:43.186Z,17.79
2018-04-15T10:14:43.339Z,17.82
2018-04-15T10:15:43.499Z,17.84
2018-04-15T10:16:43.659Z,17.92
2018-04-15T10:17:43.814Z,17.85
2018-04-15T10:18:43.971Z,18.00
2018-04-15T10:19:44.125Z,17.97
2018-04-15T10:20:44.285Z,17.94
2018-04-15T10:21:44.441Z,17.78
2018-04-15T10:22:44.596Z,17.82
2018-04-15T10:23:44.752Z,17.94
2018-04-15T10:24:44.924Z,17.99
2018-04-15T10:25:45.080Z,18.22
2018-04-15T10:26:45.238Z,18.02
2018-04-15T10:27:45.396Z,18.19
2018-04-15T10:28:45.552Z,18.34
2018-04-15T10:29:45.727Z,18.59
2018-04-15T10:30:45.871Z,18.58
2018-04-15T10:31:46.030Z,18.79
2018-04-15T10:32:46.221Z,18.68
2018-04-15T10:33:46.350Z,18.72
2018-04-15T10:34:46.512Z,18.87
2018-04-15T10:35:46.699Z,18.59
2018-04-15T10:36:46.860Z,18.39
2018-04-15T10:37:47.016Z,18.44
2018-04-15T10:38:47.237Z,18.61
2018-04-15T10:39:47.346Z,18.80
2018-04-15T10:40:47.547Z,18.61
2018-04-15T10:41:47.755Z,18.73
2018-04-15T10:42:47.930Z,18.86
2018-04-15T10:43:48.090Z,18.95
2018-04-15T10:44:48.246Z,19.11
2018-04-15T10:45:48.423Z,18.86
2018-04-15T10:46:48.578Z,18.76
2018-04-15T10:47:48.736Z,18.99
2018-04-15T10:48:48.897Z,19.01
2018-04-15T10:49:49.052Z,19.14
2018-04-15T10:50:49.233Z,19.11
2018-04-15T10:51:49.398Z,19.14
2018-04-15T10:52:49.557Z,19.32
2018-04-15T10:53:49.711Z,19.21
2018-04-15T10:54:49.869Z,19.36
2018-04-15T10:55:50.024Z,18.91
2018-04-15T10:56:50.180Z,18.72
2018-04-15T10:57:50.341Z,19.11
2018-04-15T10:58:50.504Z,19.20
2018-04-15T10:59:50.664Z,19.47
2018-04-15T11:00:50.814Z,19.70
2018-04-15T11:01:50.976Z,19.73
2018-04-15T11:02:51.129Z,19.70
2018-04-15T11:03:51.285Z,19.48
2018-04-15T11:04:51.446Z,19.63
2018-04-15T11:05:51.604Z,19.84
2018-04-15T11:06:51.776Z,20.00
2018-04-15T11:07:51.935Z,20.15
2018-04-15T11:08:52.092Z,20.33
2018-04-15T11:09:52.249Z,20.38
2018-04-15T11:10:52.409Z,20.00
2018-04-15T11:11:52.566Z,19.72
2018-04-15T11:12:52.724Z,19.57
2018-04-15T11:13:52.906Z,19.60
2018-04-15T11:14:53.047Z,19.76
2018-04-15T11:15:53.201Z,19.86
2018-04-15T11:16:53.361Z,20.12
2018-04-15T11:17:53.518Z,20.10
2018-04-15T11:18:53.680Z,20.03
2018-04-15T11:19:53.889Z,20.18
2018-04-15T11:20:54.048Z,19.95
2018-04-15T11:21:54.205Z,20.02
2018-04-15T11:22:54.365Z,20.21
2018-04-15T11:23:54.528Z,20.24
2018-04-15T11:24:54.693Z,20.31
2018-04-15T11:25:54.851Z,20.71
2018-04-15T11:26:55.009Z,20.76
2018-04-15T11:27:55.171Z,20.68
2018-04-15T11:28:55.402Z,20.86
2018-04-15T11:29:55.537Z,20.87
2018-04-15T11:30:55.696Z,20.83
2018-04-15T11:31:55.855Z,20.58
2018-04-15T11:32:56.017Z,20.64
2018-04-15T11:33:56.179Z,20.79
2018-04-15T11:34:56.344Z,20.58
2018-04-15T11:35:56.509Z,20.56
2018-04-15T11:36:56.669Z,20.74
2018-04-15T11:37:56.829Z,20.58
2018-04-15T11:38:56.983Z,20.43
2018-04-15T11:39:57.146Z,20.51
2018-04-15T11:40:57.305Z,20.33
2018-04-15T11:41:57.465Z,20.13
2018-04-15T11:42:57.630Z,20.00
2018-04-15T11:43:57.787Z,20.02
2018-04-15T11:44:57.944Z,19.98
2018-04-15T11:45:58.103Z,19.76
2018-04-15T11:46:58.260Z,19.73
2018-04-15T11:47:58.420Z,19.68
2018-04-15T11:48:58.581Z,19.75
2018-04-15T11:49:58.739Z,19.88
2018-04-15T11:50:58.899Z,19.88
2018-04-15T11:51:59.060Z,19.76
2018-04-15T11:52:59.232Z,19.80
2018-04-15T11:53:59.395Z,19.61
2018-04-15T11:54:59.550Z,19.42
2018-04-15T11:55:59.709Z,19.57
2018-04-15T11:56:59.870Z,19.66
2018-04-15T11:58:00.034Z,19.79
2018-04-15T11:59:00.189Z,19.65
2018-04-15T12:00:00.347Z,19.57
2018-04-15T12:01:00.506Z,19.58
2018-04-15T12:02:00.665Z,19.69
2018-04-15T12:03:00.829Z,19.83
2018-04-15T12:04:00.987Z,19.70
2018-04-15T12:05:01.147Z,19.73
2018-04-15T12:06:01.307Z,19.75
2018-04-15T12:07:01.467Z,19.87
2018-04-15T12:08:01.672Z,20.00
2018-04-15T12:09:01.786Z,20.05
2018-04-15T12:10:01.947Z,20.24
2018-04-15T12:11:02.108Z,20.51
2018-04-15T12:12:02.267Z,20.53
2018-04-15T12:13:02.428Z,20.68
2018-04-15T12:14:02.586Z,20.87
2018-04-15T12:15:02.744Z,20.99
2018-04-15T12:16:02.905Z,21.44
2018-04-15T12:17:03.065Z,21.39
2018-04-15T12:18:03.225Z,21.79
2018-04-15T12:19:03.384Z,21.64
2018-04-15T12:20:03.553Z,21.41
2018-04-15T12:21:03.714Z,21.19
2018-04-15T12:22:03.880Z,21.13
2018-04-15T12:23:04.053Z,21.19
2018-04-15T12:24:04.216Z,21.21
2018-04-15T12:25:04.377Z,21.02
2018-04-15T12:26:04.535Z,20.77
2018-04-15T12:27:04.692Z,20.76
2018-04-15T12:28:04.855Z,20.39
2018-04-15T12:29:05.018Z,20.66
2018-04-15T12:30:05.179Z,20.80
2018-04-15T12:31:05.339Z,20.96
2018-04-15T12:32:05.496Z,20.93
2018-04-15T12:33:05.661Z,20.91
2018-04-15T12:34:05.818Z,20.96
2018-04-15T12:35:05.978Z,20.84
2018-04-15T12:36:06.136Z,20.71
2018-04-15T12:37:06.303Z,20.80
2018-04-15T12:38:06.464Z,20.76
2018-04-15T12:39:06.622Z,20.83
2018-04-15T12:40:06.783Z,20.86
2018-04-15T12:41:06.942Z,20.87
2018-04-15T12:42:07.100Z,20.84
2018-04-15T12:43:07.266Z,20.80
2018-04-15T12:44:07.425Z,20.84
2018-04-15T12:45:07.590Z,20.58
2018-04-15T12:46:07.741Z,20.51
2018-04-15T12:47:07.898Z,20.53
2018-04-15T12:48:08.059Z,20.39
2018-04-15T12:49:08.219Z,20.50
2018-04-15T12:50:08.379Z,20.53
2018-04-15T12:51:08.538Z,20.58
2018-04-15T12:52:08.699Z,20.83
2018-04-15T12:53:08.857Z,20.86
2018-04-15T12:54:09.018Z,20.87